Tehachapi, CA

11:24 PM PST on January 26, 2015 (GMT -0800)
Tehachapi Municipal | Change Station
CLOSE
Current Station
Airport
Location: Tehachapi,
Elevation: 3999 ft
Nearby Weather Stations

Elev 3999 ft 35.13 °N, 118.44 °W | Updated 9 minutes ago

Light Rain
Light Rain
45 °F
Feels Like 41 °F
N
6
Wind Variable Wind from ESE

Today
High -- | Low -- °F
--% Chance of Precip.
Yesterday
High -- | Low -- °F
Precip. -- in
6:56 AM 5:16 PM
Waxing Crescent, 51% visible
Pressure 30.14 in
Visibility 3.0 miles
Clouds Overcast 1600 ft
Windchill 41 °F
Dew Point 43 °F
Humidity 93%
Rainfall 0.08 in
Snow Depth Not available.
UV 0 out of 12
Pollen 5.40 out of 12
Air Quality Not available.
Flu Activity Not available.
METAR KTSP 270715Z AUTO 11005KT 3SM -RA OVC016 07/06 A3014 RMK AO2

More Conditions Fewer Conditions

Pressure 30.14 in
Visibility 3.0 miles
Clouds Overcast 1600 ft
Windchill 41 °F
Dew Point 43 °F
Humidity 93%
Rainfall 0.08 in
Snow Depth Not available.
UV 0 out of 12
Pollen 5.40 out of 12
Air Quality Not available.
Flu Activity Not available.
METAR KTSP 270715Z AUTO 11005KT 3SM -RA OVC016 07/06 A3014 RMK AO2

More Conditions Fewer Conditions

10-Day Weather Forecast

Almanac

Astronomy

Jan. 26, 2015 Rise Set
Actual Time
Civil Twilight
Nautical Twilight
Astronomical Twilight
Moon
Length of Visible Light
Length of Day
Tomorrow will be .
, % of the Moon is Illuminated

Today's Extremes

State Highs State Lows

Community

WunderPhotos

Upload Photos

1,790,543 photos uploaded!

WunderBlogs® & News

Nearby

Air Quality

  Air Quality AQ Index Pollutant
Not available.

Snow Depth

Station Depth Elevation

Earthquake Activity

City Distance Mag. Time & Date
Minimum magnitude displayed is 2.5.

Coastal Water Temperatures

Place Temperature

Nearby Weather Stations